Station: EBLB - 21/11/2017 10:03Z (il y a 11 minutes)
EBLB 211003Z 24009KT 2500 -DZ OVC003 07/07 Q1014 YLO YLO TEMPO AMB
Vent du 240º - 9 kt
Visibilité: 2500 m (faible bruine)
Ciel couvert à 300 pieds
Température: +07ºC - Point de rosée: +07ºC - QNH: 1014 hPa
Code couleur militaire: YLO (conditions IMC ou marginales)
Code couleur militaire: YLO (conditions IMC ou marginales)
Temporairement
Code couleur militaire: AMB (conditions IMC)